Latest Weather Observations for Cobar Airport

IDN60801

Issued at 8:32 am EST Monday 20 April 2015 (issued every 30 minutes, with the page automatically refreshed every 10 minutes)

About weather observations | Map of weather stations | Latest weather observations for NSW | Other Formats
Station Details ID: 048237 Name: COBAR AIRPORT AWS Lat: -31.54 Lon: 145.80 Height: 218.0 m
Data from the previous 72 hours. | See also: Recent months for locations in New South Wales
Date/Time
EST
Temp
°C
App
Temp
°C
Dew
Point
Rel
Hum
%
Delta-T
°C
Wind Press
QNH
hPa
Press
MSL
hPa
Rain
since 9 am
mm
Dir
 
Spd
km/h
Gust
km/h
Spd
kts
Gust
kts
20/08:30am 8.6 3.4 3.4 70 2.2 SSW 20 30 11 16 1028.7 1028.3 0.2
20/08:00am 7.7 2.7 3.6 75 1.8 SSW 19 26 10 14 1028.8 1028.4 0.2
20/07:30am 6.8 2.1 3.4 79 1.5 SSW 17 26 9 14 1028.5 1028.1 0.2
20/07:00am 6.0 2.2 3.7 85 1.0 SSW 13 17 7 9 1027.9 1027.4 0.2
20/06:30am 5.8 1.9 3.5 85 1.0 SSW 13 17 7 9 1027.8 1027.3 0.2
20/06:00am 5.8 1.9 3.5 85 1.0 SW 13 17 7 9 1027.5 1027.0 0.2
20/05:30am 5.9 2.1 3.7 86 0.9 SW 13 17 7 9 1027.5 1027.0 0.2
20/05:00am 5.3 2.1 3.3 87 0.8 SW 9 11 5 6 1027.4 1026.9 0.2
20/04:30am 5.8 2.6 3.1 83 1.1 SW 9 11 5 6 1027.3 1026.8 0.2
20/04:00am 6.4 2.9 3.4 81 1.3 SW 11 15 6 8 1027.3 1026.8 0.2
20/03:30am 7.0 3.1 3.4 78 1.5 SSW 13 17 7 9 1027.2 1026.7 0.2
20/03:00am 7.4 3.6 3.8 78 1.6 SSW 13 19 7 10 1027.4 1026.9 0.2
20/02:30am 6.8 3.6 3.2 78 1.5 SW 9 13 5 7 1027.5 1027.0 0.2
20/02:00am 7.6 3.7 3.6 76 1.7 SSW 13 17 7 9 1027.6 1027.1 0.2
20/01:30am 7.9 4.1 3.9 76 1.7 SW 13 15 7 8 1027.5 1027.0 0.2
20/01:00am 8.5 4.3 3.9 73 2.0 SW 15 17 8 9 1027.7 1027.2 0.2
20/12:30am 8.8 5.4 3.8 71 2.2 SSW 11 15 6 8 1027.8 1027.3 0.2
20/12:00am 9.5 5.7 3.9 68 2.5 SSW 13 17 7 9 1028.1 1027.6 0.2
 
Date/Time
EST
Temp
°C
App
Temp
°C
Dew
Point
Rel
Hum
%
Delta-T
°C
Wind Press
QNH
hPa
Press
MSL
hPa
Rain
since 9 am
mm
Dir
 
Spd
km/h
Gust
km/h
Spd
kts
Gust
kts
19/11:30pm 9.5 5.7 3.9 68 2.5 SSW 13 15 7 8 1028.3 1027.8 0.2
19/11:00pm 10.1 6.3 3.8 65 2.8 SSW 13 17 7 9 1028.4 1028.0 0.2
19/10:30pm 10.7 6.2 4.0 63 3.0 SSW 17 20 9 11 1028.6 1028.2 0.2
19/10:00pm 10.8 7.0 3.8 62 3.1 SSW 13 17 7 9 1028.7 1028.3 0.2
19/09:30pm 11.4 6.8 3.7 59 3.5 SSW 17 22 9 12 1028.7 1028.3 0.2
19/09:00pm 11.9 6.8 3.2 55 3.8 SSW 19 24 10 13 1028.5 1028.1 0.2
19/08:30pm 12.3 7.1 3.3 54 4.0 SSW 20 26 11 14 1028.2 1027.7 0.2
19/08:00pm 12.6 7.3 3.0 52 4.3 SSW 20 28 11 15 1027.9 1027.4 0.2
19/07:30pm 12.9 8.2 3.0 51 4.4 SSW 17 24 9 13 1027.5 1027.0 0.2
19/07:00pm 13.6 7.5 2.5 47 4.9 SSW 24 30 13 16 1026.8 1026.3 0.2
19/06:30pm 14.0 8.1 2.0 44 5.3 SSW 22 32 12 17 1026.3 1025.8 0.2
19/06:00pm 14.3 8.9 2.2 44 5.4 S 20 33 11 18 1026.0 1025.5 0.2
19/05:30pm 15.3 8.7 2.1 41 5.9 SSW 26 39 14 21 1025.6 1025.1 0.2
19/05:00pm 16.2 9.5 1.5 37 6.5 SSW 26 37 14 20 1025.3 1024.8 0.2
19/04:30pm 16.6 9.5 1.5 36 6.8 S 28 39 15 21 1025.1 1024.6 0.2
19/04:00pm 16.9 9.9 2.1 37 6.7 S 28 39 15 21 1024.7 1024.2 0.2
19/03:30pm 17.1 10.6 2.7 38 6.6 SSW 26 35 14 19 1024.4 1023.8 0.2
19/03:00pm 16.7 9.4 2.7 39 6.4 S 30 41 16 22 1024.2 1023.7 0.2
19/02:30pm 17.0 9.9 3.7 41 6.3 SSW 30 39 16 21 1024.2 1023.7 0.2
19/02:00pm 16.8 10.8 5.4 47 5.5 S 26 37 14 20 1024.2 1023.7 0.2
19/01:30pm 15.5 10.2 6.8 56 4.3 S 24 33 13 18 1024.5 1024.0 0.2
19/01:00pm 16.0 11.0 8.0 59 4.1 SSW 24 35 13 19 1024.7 1024.2 0.0
19/12:30pm 15.0 10.1 8.5 65 3.3 SSW 24 33 13 18 1024.7 1024.2 0.0
19/12:00pm 14.5 9.4 9.1 70 2.8 SSW 26 37 14 20 1024.9 1024.4 0.0
19/11:30am 14.4 9.8 9.8 74 2.4 SSW 24 35 13 19 1024.9 1024.4 0.0
19/11:00am 14.3 9.2 10.5 78 2.0 SSW 28 35 15 19 1025.0 1024.5 0.0
19/10:30am 13.9 8.9 11.1 83 1.5 SSW 28 41 15 22 1024.9 1024.4 0.0
19/10:00am 13.7 9.2 11.4 86 1.2 SSW 26 35 14 19 1024.6 1024.1 0.0
19/09:30am 14.3 9.9 11.6 84 1.5 SSW 26 33 14 18 1024.1 1023.6 0.0
19/09:00am 14.5 11.6 12.4 87 1.2 SSW 19 28 10 15 1023.9 1023.4 2.8
19/08:30am 13.9 11.4 12.3 90 0.9 SSW 17 22 9 12 1023.6 1023.1 2.8
19/08:00am 13.5 10.9 12.1 91 0.8 SSW 17 26 9 14 1023.0 1022.5 2.8
19/07:30am 13.3 10.8 12.4 94 0.5 SSW 17 24 9 13 1022.2 1021.7 2.8
19/07:00am 13.0 11.0 12.8 99 0.1 SSW 15 20 8 11 1021.8 1021.3 2.8
19/06:30am 11.9 11.1 11.7 99 0.1 SW 7 9 4 5 1021.5 1021.0 2.8
19/06:00am 11.6 10.6 11.1 97 0.3 SSW 7 9 4 5 1021.0 1020.5 2.8
19/05:30am 12.1 11.4 11.5 96 0.3 SSW 6 7 3 4 1020.5 1020.0 2.8
19/05:00am 13.0 11.6 12.2 95 0.4 SSW 11 13 6 7 1020.2 1019.6 2.8
19/04:30am 13.5 12.3 12.7 95 0.4 SSW 11 15 6 8 1019.9 1019.3 2.8
19/04:00am 13.7 12.2 13.1 96 0.3 SSW 13 17 7 9 1019.6 1019.0 2.8
19/03:30am 13.5 11.6 12.9 96 0.3 SSW 15 19 8 10 1019.3 1018.8 2.8
19/03:00am 13.8 11.4 12.7 93 0.6 SSW 17 22 9 12 1019.9 1019.3 2.8
19/02:30am 14.2 12.2 12.8 91 0.8 SSW 15 22 8 12 1019.3 1018.8 2.8
19/02:00am 14.6 11.9 12.8 89 1.0 SSW 19 24 10 13 1019.3 1018.8 2.8
19/01:30am 14.8 12.6 13.3 91 0.8 SSW 17 24 9 13 1019.7 1019.1 2.8
19/01:00am 15.0 13.4 14.0 94 0.6 SSW 15 19 8 10 1019.6 1019.0 2.8
19/12:30am 15.5 14.0 15.3 99 0.1 SSW 17 20 9 11 1019.4 1018.9 2.8
19/12:00am 15.6 13.6 15.4 99 0.1 SSW 20 28 11 15 1019.4 1018.9 2.8
 
Date/Time
EST
Temp
°C
App
Temp
°C
Dew
Point
Rel
Hum
%
Delta-T
°C
Wind Press
QNH
hPa
Press
MSL
hPa
Rain
since 9 am
mm
Dir
 
Spd
km/h
Gust
km/h
Spd
kts
Gust
kts
18/11:30pm 16.2 14.5 15.7 97 0.3 SW 19 28 10 15 1019.3 1018.8 2.8
18/11:00pm 16.8 15.7 16.3 97 0.3 SW 17 28 9 15 1019.2 1018.7 2.8
18/10:30pm 17.5 17.9 17.3 99 0.1 WSW 11 17 6 9 1019.0 1018.5 2.8
18/10:00pm 17.7 18.6 17.5 99 0.1 W 9 13 5 7 1018.6 1018.1 2.8
18/09:30pm 17.6 18.1 17.4 99 0.1 WNW 11 15 6 8 1018.5 1018.0 2.8
18/09:00pm 17.7 18.2 17.5 99 0.1 NW 11 15 6 8 1018.3 1017.8 2.6
18/08:30pm 17.8 18.7 17.5 98 0.2 NW 9 13 5 7 1017.9 1017.4 2.6
18/08:00pm 17.7 19.0 17.2 97 0.3 WNW 6 7 3 4 1017.5 1017.0 2.4
18/07:30pm 17.7 18.5 17.2 97 0.3 NNW 9 11 5 6 1017.2 1016.7 2.4
18/07:00pm 17.9 19.3 17.3 96 0.4 NW 6 7 3 4 1017.0 1016.5 2.4
18/06:30pm 17.9 18.7 17.3 96 0.4 NNW 9 13 5 7 1016.8 1016.3 2.4
18/06:00pm 18.2 19.1 17.6 96 0.4 NNW 9 13 5 7 1016.4 1015.8 2.4
18/05:30pm 18.3 18.9 17.7 96 0.4 NW 11 13 6 7 1016.4 1015.8 2.4
18/05:00pm 18.4 19.4 17.8 96 0.4 NW 9 13 5 7 1016.2 1015.6 2.4
18/04:30pm 18.3 19.5 17.3 94 0.6 NW 7 13 4 7 1016.0 1015.4 2.4
18/04:00pm 18.1 19.0 17.6 97 0.3 NW 9 13 5 7 1015.8 1015.2 2.4
18/03:30pm 18.2 18.0 17.7 97 0.3 N 15 19 8 10 1016.3 1015.7 2.0
18/03:00pm 18.3 18.5 17.7 96 0.4 NNW 13 19 7 10 1016.4 1015.8 2.0
18/02:30pm 18.2 17.1 17.4 95 0.5 NNW 19 24 10 13 1016.8 1016.3 1.8
18/02:00pm 18.6 16.6 16.4 87 1.3 NNW 22 32 12 17 1016.5 1016.0 1.2
18/01:30pm 18.5 18.5 17.3 93 0.7 NNW 13 19 7 10 1015.8 1015.2 1.2
18/01:00pm 17.8 18.1 17.0 95 0.5 WNW 11 20 6 11 1016.5 1016.0 1.2
18/12:30pm 18.0 15.6 16.5 91 0.9 W 24 33 13 18 1017.6 1017.1 0.2
18/12:00pm 19.6 16.8 16.4 82 1.9 W 26 35 14 19 1018.0 1017.5 0.0
18/11:30am 21.5 19.3 14.9 66 3.9 W 20 28 11 15 1017.6 1017.1 0.0
18/11:00am 21.4 19.2 14.8 66 3.9 WSW 20 30 11 16 1017.7 1017.2 0.0
18/10:30am 21.7 20.6 15.3 67 3.8 SW 15 20 8 11 1017.5 1017.0 0.0
18/10:00am 21.7 20.3 15.5 68 3.7 SW 17 22 9 12 1017.5 1017.0 0.0
18/09:30am 21.7 19.9 15.5 68 3.7 SSW 19 24 10 13 1017.2 1016.7 0.0
18/09:00am 21.7 19.3 15.3 67 3.8 S 22 30 12 16 1017.3 1016.8 0.0
18/08:30am 21.3 19.5 15.6 70 3.4 SSW 19 24 10 13 1017.3 1016.8 0.0
18/08:00am 20.9 19.4 15.4 71 3.3 SW 17 22 9 12 1017.1 1016.6 0.0
18/07:30am 20.9 20.1 15.0 69 3.5 SW 13 19 7 10 1016.6 1016.1 0.0
18/07:00am 20.9 20.2 14.3 66 3.9 SW 11 15 6 8 1016.2 1015.6 0.0
18/06:30am 20.7 20.4 13.4 63 4.2 SW 7 11 4 6 1016.0 1015.4 0.0
18/06:00am 20.4 19.3 10.8 54 5.3 W 7 11 4 6 1016.0 1015.4 0.0
18/05:30am 20.6 19.5 9.8 50 5.9 NNE 6 9 3 5 1015.5 1014.9 0.0
18/05:00am 21.4 21.0 11.1 52 5.7 E 4 11 2 6 1015.4 1014.8 0.0
18/04:30am 20.9 20.4 9.2 47 6.3 SW 2 7 1 4 1015.4 1014.8 0.0
18/04:00am 21.6 21.0 8.8 44 6.8 NNE 2 7 1 4 1015.1 1014.5 0.0
18/03:30am 23.2 22.3 9.2 41 7.6 NW 4 7 2 4 1015.2 1014.6 0.0
18/03:00am 23.7 21.0 8.9 39 8.0 WNW 13 17 7 9 1015.6 1015.0 0.0
18/02:30am 25.0 21.6 9.3 37 8.6 NNW 17 26 9 14 1015.2 1014.6 0.0
18/02:00am 25.3 20.6 9.2 36 8.9 NNE 24 35 13 19 1015.0 1014.4 0.0
18/01:30am 25.7 19.8 9.1 35 9.1 NNE 30 43 16 23 1015.1 1014.5 0.0
18/01:00am 26.1 20.1 8.6 33 9.6 NNE 30 43 16 23 1015.2 1014.6 0.0
18/12:30am 26.4 20.3 8.4 32 9.8 NNE 30 39 16 21 1015.4 1014.8 0.0
18/12:00am 26.8 20.7 8.3 31 10.1 NNE 30 41 16 22 1015.4 1014.8 0.0
 
Date/Time
EST
Temp
°C
App
Temp
°C
Dew
Point
Rel
Hum
%
Delta-T
°C
Wind Press
QNH
hPa
Press
MSL
hPa
Rain
since 9 am
mm
Dir
 
Spd
km/h
Gust
km/h
Spd
kts
Gust
kts
17/11:30pm 27.1 20.9 8.0 30 10.4 NNE 30 43 16 23 1015.4 1014.8 0.0
17/11:00pm 27.2 21.4 8.1 30 10.4 NNE 28 39 15 21 1015.3 1014.7 0.0
17/10:30pm 27.4 22.3 7.8 29 10.6 NNE 24 33 13 18 1015.7 1015.1 0.0
17/10:00pm 27.5 22.3 7.4 28 10.8 NNE 24 33 13 18 1015.7 1015.1 0.0
17/09:30pm 27.6 22.7 6.9 27 11.1 NNE 22 28 12 15 1015.9 1015.3 0.0
17/09:00pm 27.7 23.2 7.0 27 11.1 NNE 20 24 11 13 1015.8 1015.2 0.0
17/08:30pm 27.7 23.9 7.5 28 10.9 NNE 17 22 9 12 1015.6 1015.0 0.0
17/08:00pm 27.6 24.6 7.5 28 10.9 NE 13 17 7 9 1015.7 1015.1 0.0
17/07:30pm 27.9 24.8 7.2 27 11.2 NNE 13 15 7 8 1015.5 1014.9 0.0
17/07:00pm 28.3 25.5 7.0 26 11.5 NNE 11 13 6 7 1015.2 1014.6 0.0
17/06:30pm 29.0 25.8 7.0 25 11.9 NNE 13 17 7 9 1015.0 1014.4 0.0
17/06:00pm 29.8 26.1 6.5 23 12.5 NNE 15 19 8 10 1014.9 1014.3 0.0
17/05:30pm 30.8 26.2 6.6 22 13.1 N 20 28 11 15 1014.8 1014.2 0.0
17/05:00pm 31.4 26.2 7.1 22 13.3 N 24 39 13 21 1014.7 1014.1 0.0
17/04:30pm 31.9 27.1 8.8 24 13.0 N 24 37 13 20 1014.7 1014.1 0.0
17/04:00pm 32.0 28.0 8.3 23 13.3 N 19 32 10 17 1014.9 1014.3 0.0
17/03:30pm 31.5 26.1 7.9 23 13.1 N 26 39 14 21 1015.2 1014.6 0.0
17/03:00pm 31.9 27.1 8.8 24 13.0 N 24 39 13 21 1015.7 1015.1 0.0
17/02:34pm 31.7 26.9 8.7 24 13.0 N 24 44 13 24 1016.1 1015.5 0.0
17/02:30pm 31.3 27.3 8.3 24 12.8 N 19 28 10 15 1016.2 1015.6 0.0
17/02:00pm 30.8 26.9 10.7 29 11.6 NNE 22 33 12 18 1016.4 1015.8 0.0
17/01:30pm 30.1 27.0 11.6 32 10.8 NNE 19 28 10 15 1017.1 1016.6 0.0
17/01:00pm 28.0 24.4 10.7 34 9.9 NE 20 28 11 15 1017.9 1017.4 0.0
17/12:30pm 28.0 24.9 11.5 35 9.6 NNE 19 26 10 14 1018.6 1018.1 0.0
17/12:00pm 26.3 23.5 11.2 38 8.6 ENE 17 24 9 13 1019.7 1019.1 0.0
17/11:30am 25.4 22.4 11.9 43 7.8 ENE 19 28 10 15 1020.6 1020.1 0.0
17/11:00am 24.5 21.2 11.5 44 7.4 E 20 28 11 15 1020.7 1020.2 0.0
17/10:30am 23.4 20.4 10.8 45 7.1 E 17 22 9 12 1021.4 1020.9 0.0
17/10:00am 22.1 18.2 10.9 49 6.2 E 22 32 12 17 1021.7 1021.2 0.0
17/09:30am 21.4 17.5 10.9 51 5.8 E 22 35 12 19 1022.0 1021.5 0.0
17/09:00am 20.9 18.4 11.0 53 5.5 E 15 24 8 13 1022.4 1021.9 1.4

Other Formats:

Comma delimited format used in spreadsheet applications
http://www.bom.gov.au/fwo/IDN60801/IDN60801.94710.axf

JavaScript Object Notation format (JSON) in row-major order
http://www.bom.gov.au/fwo/IDN60801/IDN60801.94710.json